CPA1 ZGSD-VHHH
Flight info
| Callsign | CPA1 |
|---|---|
| Flight time | 1h 8m |
| Altitude | 6900 |
| Route | MCU BASE TRAINING |
| Aircraft | A346/H-SDE2E3FGHIJ3J4J5M1RWXY/LB1D1 |
Departure
| Time | 2026-05-08 11:53 |
|---|---|
| Airport | Zhuhai Jinwan Airport (ZGSD) |
Arrival
| Time | 2026-05-08 13:02 |
|---|---|
| Airport | Hong Kong International Airport (VHHH) |
| Time | Latitude | Longitude | Altitude | Speed | Heading |
|---|---|---|---|---|---|
| 2026-05-08 11:42 | 22.00792 | 113.37360 | 37 ft | 0 kts | 94° |
| 2026-05-08 11:47 | 22.00791 | 113.37377 | 37 ft | 4 kts | 95° |
| 2026-05-08 11:47 | 22.00779 | 113.37388 | 37 ft | 4 kts | 172° |
| 2026-05-08 11:47 | 22.00747 | 113.37375 | 37 ft | 7 kts | 211° |
| 2026-05-08 11:48 | 22.00696 | 113.37334 | 37 ft | 11 kts | 213° |
| 2026-05-08 11:48 | 22.00608 | 113.37317 | 37 ft | 15 kts | 193° |
| 2026-05-08 11:48 | 22.00513 | 113.37242 | 37 ft | 19 kts | 224° |
| 2026-05-08 11:48 | 22.00408 | 113.37129 | 35 ft | 23 kts | 225° |
| 2026-05-08 11:49 | 22.00288 | 113.37000 | 36 ft | 26 kts | 225° |
| 2026-05-08 11:49 | 22.00154 | 113.36857 | 36 ft | 28 kts | 224° |
| 2026-05-08 11:49 | 22.00008 | 113.36704 | 37 ft | 30 kts | 224° |
| 2026-05-08 11:49 | 21.99854 | 113.36542 | 37 ft | 32 kts | 224° |
| 2026-05-08 11:50 | 21.99694 | 113.36371 | 37 ft | 33 kts | 225° |
| 2026-05-08 11:50 | 21.99609 | 113.36281 | 37 ft | 0 kts | 225° |
| 2026-05-08 11:50 | 21.99607 | 113.36279 | 37 ft | 1 kts | 217° |
| 2026-05-08 11:50 | 21.99603 | 113.36278 | 37 ft | 1 kts | 190° |
| 2026-05-08 11:51 | 21.99591 | 113.36283 | 37 ft | 5 kts | 144° |
| 2026-05-08 11:51 | 21.99577 | 113.36298 | 36 ft | 0 kts | 135° |
| 2026-05-08 11:52 | 21.99542 | 113.36336 | 36 ft | 11 kts | 135° |
| 2026-05-08 11:52 | 21.99504 | 113.36377 | 36 ft | 6 kts | 127° |
| 2026-05-08 11:52 | 21.99515 | 113.36425 | 36 ft | 9 kts | 57° |
| 2026-05-08 11:53 | 21.99582 | 113.36506 | 37 ft | 33 kts | 45° |
| 2026-05-08 11:53 | 21.99966 | 113.36916 | 38 ft | 120 kts | 45° |
| 2026-05-08 11:53 | 22.00741 | 113.37739 | 67 ft | 186 kts | 45° |
| 2026-05-08 11:53 | 22.01682 | 113.38760 | 893 ft | 195 kts | 46° |
| 2026-05-08 11:54 | 22.02620 | 113.39815 | 1899 ft | 199 kts | 49° |
| 2026-05-08 11:54 | 22.03420 | 113.41002 | 2900 ft | 194 kts | 60° |
| 2026-05-08 11:54 | 22.03954 | 113.42316 | 3794 ft | 193 kts | 71° |
| 2026-05-08 11:54 | 22.04383 | 113.43717 | 4477 ft | 202 kts | 72° |
| 2026-05-08 11:55 | 22.04814 | 113.45187 | 5189 ft | 210 kts | 71° |
| 2026-05-08 11:55 | 22.05497 | 113.46650 | 5503 ft | 226 kts | 58° |
| 2026-05-08 11:55 | 22.06319 | 113.48078 | 5196 ft | 223 kts | 61° |
| 2026-05-08 11:55 | 22.06928 | 113.49613 | 4839 ft | 223 kts | 69° |
| 2026-05-08 11:56 | 22.07403 | 113.51205 | 4487 ft | 223 kts | 73° |
| 2026-05-08 11:56 | 22.07783 | 113.52820 | 4147 ft | 222 kts | 76° |
| 2026-05-08 11:56 | 22.08138 | 113.54422 | 3864 ft | 217 kts | 76° |
| 2026-05-08 11:56 | 22.08479 | 113.55995 | 3570 ft | 214 kts | 76° |
| 2026-05-08 11:57 | 22.08717 | 113.57561 | 3260 ft | 211 kts | 92° |
| 2026-05-08 11:57 | 22.08238 | 113.59031 | 2886 ft | 212 kts | 126° |
| 2026-05-08 11:57 | 22.07069 | 113.59950 | 2505 ft | 213 kts | 160° |
| 2026-05-08 11:57 | 22.05650 | 113.60355 | 2238 ft | 209 kts | 164° |
| 2026-05-08 11:58 | 22.04273 | 113.60791 | 1997 ft | 205 kts | 162° |
| 2026-05-08 11:58 | 22.03111 | 113.61596 | 1720 ft | 201 kts | 126° |
| 2026-05-08 11:58 | 22.02767 | 113.62982 | 1560 ft | 192 kts | 82° |
| 2026-05-08 11:59 | 22.04540 | 113.64467 | 1400 ft | 175 kts | 345° |
| 2026-05-08 11:59 | 22.05507 | 113.63743 | 1457 ft | 174 kts | 311° |
| 2026-05-08 11:59 | 22.06284 | 113.62765 | 1609 ft | 168 kts | 312° |
| 2026-05-08 11:59 | 22.07139 | 113.62012 | 1469 ft | 154 kts | 334° |
| 2026-05-08 12:00 | 22.08126 | 113.61645 | 1202 ft | 149 kts | 342° |
| 2026-05-08 12:00 | 22.09106 | 113.61300 | 1002 ft | 149 kts | 339° |
| 2026-05-08 12:00 | 22.10068 | 113.60909 | 821 ft | 148 kts | 340° |
| 2026-05-08 12:00 | 22.11047 | 113.60564 | 658 ft | 148 kts | 341° |
| 2026-05-08 12:01 | 22.12015 | 113.60229 | 475 ft | 147 kts | 340° |
| 2026-05-08 12:01 | 22.12971 | 113.59867 | 258 ft | 146 kts | 340° |
| 2026-05-08 12:01 | 22.13929 | 113.59522 | 48 ft | 145 kts | 340° |
| 2026-05-08 12:01 | 22.14824 | 113.59190 | 35 ft | 136 kts | 340° |
| 2026-05-08 12:02 | 22.15970 | 113.58762 | 240 ft | 201 kts | 340° |
| 2026-05-08 12:02 | 22.17297 | 113.58246 | 1415 ft | 210 kts | 339° |
| 2026-05-08 12:02 | 22.18727 | 113.57794 | 1810 ft | 214 kts | 354° |
| 2026-05-08 12:02 | 22.20158 | 113.58084 | 1805 ft | 213 kts | 27° |
| 2026-05-08 12:03 | 22.21167 | 113.59187 | 1735 ft | 209 kts | 64° |
| 2026-05-08 12:03 | 22.21363 | 113.60680 | 1748 ft | 202 kts | 101° |
| 2026-05-08 12:03 | 22.20697 | 113.61954 | 1758 ft | 200 kts | 139° |
| 2026-05-08 12:03 | 22.19480 | 113.62677 | 1793 ft | 201 kts | 157° |
| 2026-05-08 12:04 | 22.18186 | 113.63208 | 1789 ft | 201 kts | 160° |
| 2026-05-08 12:04 | 22.16867 | 113.63714 | 1787 ft | 201 kts | 160° |
| 2026-05-08 12:04 | 22.15562 | 113.64211 | 1789 ft | 201 kts | 161° |
| 2026-05-08 12:04 | 22.14249 | 113.64710 | 1789 ft | 200 kts | 161° |
| 2026-05-08 12:05 | 22.12938 | 113.65207 | 1787 ft | 200 kts | 160° |
| 2026-05-08 12:05 | 22.11631 | 113.65699 | 1784 ft | 200 kts | 161° |
| 2026-05-08 12:05 | 22.10327 | 113.66182 | 1792 ft | 197 kts | 166° |
| 2026-05-08 12:05 | 22.09027 | 113.66138 | 1740 ft | 183 kts | 201° |
| 2026-05-08 12:06 | 22.08091 | 113.65301 | 1563 ft | 175 kts | 242° |
| 2026-05-08 12:06 | 22.07916 | 113.64056 | 1406 ft | 172 kts | 285° |
| 2026-05-08 12:06 | 22.08516 | 113.62944 | 1342 ft | 172 kts | 307° |
| 2026-05-08 12:06 | 22.09225 | 113.61977 | 1171 ft | 160 kts | 308° |
| 2026-05-08 12:07 | 22.09949 | 113.61099 | 849 ft | 155 kts | 321° |
| 2026-05-08 12:07 | 22.10899 | 113.60604 | 552 ft | 149 kts | 347° |
| 2026-05-08 12:07 | 22.11879 | 113.60299 | 454 ft | 146 kts | 339° |
| 2026-05-08 12:07 | 22.12828 | 113.59916 | 287 ft | 146 kts | 341° |
| 2026-05-08 12:08 | 22.13782 | 113.59570 | 82 ft | 145 kts | 340° |
| 2026-05-08 12:08 | 22.14689 | 113.59237 | 37 ft | 129 kts | 341° |
| 2026-05-08 12:08 | 22.15527 | 113.58928 | 36 ft | 148 kts | 340° |
| 2026-05-08 12:08 | 22.16679 | 113.58480 | 529 ft | 189 kts | 339° |
| 2026-05-08 12:09 | 22.17916 | 113.58024 | 1404 ft | 198 kts | 342° |
| 2026-05-08 12:09 | 22.19228 | 113.57441 | 1607 ft | 208 kts | 341° |
| 2026-05-08 12:09 | 22.20653 | 113.57482 | 1897 ft | 212 kts | 25° |
| 2026-05-08 12:09 | 22.21845 | 113.58416 | 1975 ft | 213 kts | 36° |
| 2026-05-08 12:10 | 22.22875 | 113.59500 | 1971 ft | 211 kts | 67° |
| 2026-05-08 12:10 | 22.22849 | 113.61031 | 1906 ft | 210 kts | 116° |
| 2026-05-08 12:10 | 22.21781 | 113.62031 | 1830 ft | 209 kts | 159° |
| 2026-05-08 12:10 | 22.20384 | 113.62447 | 1903 ft | 210 kts | 166° |
| 2026-05-08 12:11 | 22.18986 | 113.62929 | 1867 ft | 210 kts | 160° |
| 2026-05-08 12:11 | 22.17626 | 113.63451 | 1827 ft | 209 kts | 161° |
| 2026-05-08 12:11 | 22.16260 | 113.63964 | 1730 ft | 204 kts | 161° |
| 2026-05-08 12:11 | 22.14966 | 113.64450 | 1627 ft | 193 kts | 161° |
| 2026-05-08 12:12 | 22.13753 | 113.64905 | 1572 ft | 180 kts | 161° |
| 2026-05-08 12:12 | 22.12609 | 113.65333 | 1559 ft | 172 kts | 161° |
| 2026-05-08 12:12 | 22.11483 | 113.65755 | 1570 ft | 171 kts | 161° |
| 2026-05-08 12:12 | 22.10364 | 113.66174 | 1571 ft | 171 kts | 161° |
| 2026-05-08 12:13 | 22.09237 | 113.66547 | 1562 ft | 171 kts | 178° |
| 2026-05-08 12:13 | 22.08116 | 113.66216 | 1554 ft | 171 kts | 218° |
| 2026-05-08 12:13 | 22.07450 | 113.65172 | 1592 ft | 172 kts | 243° |
| 2026-05-08 12:13 | 22.06956 | 113.64052 | 1497 ft | 159 kts | 244° |
| 2026-05-08 12:14 | 22.06654 | 113.62971 | 1293 ft | 147 kts | 275° |
| 2026-05-08 12:14 | 22.07117 | 113.62040 | 1291 ft | 147 kts | 322° |
| 2026-05-08 12:14 | 22.08036 | 113.61593 | 1251 ft | 147 kts | 343° |
| 2026-05-08 12:14 | 22.09015 | 113.61332 | 999 ft | 145 kts | 346° |
| 2026-05-08 12:15 | 22.09975 | 113.61023 | 785 ft | 144 kts | 336° |
| 2026-05-08 12:15 | 22.10903 | 113.60614 | 644 ft | 144 kts | 342° |
| 2026-05-08 12:15 | 22.11854 | 113.60277 | 462 ft | 144 kts | 341° |
| 2026-05-08 12:15 | 22.12794 | 113.59936 | 269 ft | 143 kts | 341° |
| 2026-05-08 12:16 | 22.13717 | 113.59591 | 102 ft | 142 kts | 341° |
| 2026-05-08 12:16 | 22.14621 | 113.59271 | 38 ft | 129 kts | 341° |
| 2026-05-08 12:16 | 22.15629 | 113.58895 | 72 ft | 189 kts | 341° |
| 2026-05-08 12:16 | 22.16885 | 113.58455 | 1134 ft | 184 kts | 344° |
| 2026-05-08 12:17 | 22.18129 | 113.58404 | 1926 ft | 186 kts | 18° |
| 2026-05-08 12:17 | 22.19150 | 113.59327 | 2465 ft | 206 kts | 58° |
| 2026-05-08 12:17 | 22.19460 | 113.60835 | 2507 ft | 211 kts | 96° |
| 2026-05-08 12:17 | 22.19019 | 113.62335 | 2476 ft | 211 kts | 117° |
| 2026-05-08 12:18 | 22.17994 | 113.63437 | 2319 ft | 209 kts | 149° |
| 2026-05-08 12:18 | 22.16695 | 113.64049 | 2139 ft | 201 kts | 159° |
| 2026-05-08 12:18 | 22.15430 | 113.64542 | 1958 ft | 194 kts | 161° |
| 2026-05-08 12:18 | 22.14185 | 113.65011 | 1781 ft | 188 kts | 161° |
| 2026-05-08 12:19 | 22.12977 | 113.65463 | 1608 ft | 182 kts | 161° |
| 2026-05-08 12:19 | 22.11830 | 113.65892 | 1569 ft | 168 kts | 161° |
| 2026-05-08 12:19 | 22.10777 | 113.66286 | 1538 ft | 153 kts | 163° |
| 2026-05-08 12:19 | 22.09802 | 113.66175 | 1430 ft | 146 kts | 224° |
| 2026-05-08 12:20 | 22.09469 | 113.65190 | 1449 ft | 152 kts | 272° |
| 2026-05-08 12:20 | 22.09528 | 113.63975 | 1557 ft | 164 kts | 278° |
| 2026-05-08 12:20 | 22.09885 | 113.62847 | 1374 ft | 156 kts | 298° |
| 2026-05-08 12:20 | 22.10370 | 113.61830 | 1082 ft | 150 kts | 296° |
| 2026-05-08 12:21 | 22.10869 | 113.60868 | 751 ft | 146 kts | 315° |
| 2026-05-08 12:21 | 22.11723 | 113.60332 | 454 ft | 142 kts | 339° |
| 2026-05-08 12:21 | 22.12668 | 113.59992 | 312 ft | 143 kts | 340° |
| 2026-05-08 12:21 | 22.13599 | 113.59639 | 128 ft | 142 kts | 341° |
| 2026-05-08 12:22 | 22.14509 | 113.59304 | 37 ft | 130 kts | 341° |
| 2026-05-08 12:22 | 22.15522 | 113.58933 | 92 ft | 188 kts | 341° |
| 2026-05-08 12:22 | 22.16752 | 113.58505 | 1053 ft | 185 kts | 342° |
| 2026-05-08 12:22 | 22.18057 | 113.58278 | 1460 ft | 191 kts | 6° |
| 2026-05-08 12:23 | 22.19146 | 113.58876 | 1541 ft | 169 kts | 49° |
| 2026-05-08 12:23 | 22.19486 | 113.59974 | 1501 ft | 150 kts | 99° |
| 2026-05-08 12:23 | 22.18964 | 113.60877 | 1518 ft | 145 kts | 147° |
| 2026-05-08 12:23 | 22.18068 | 113.61363 | 1543 ft | 144 kts | 158° |
| 2026-05-08 12:24 | 22.17151 | 113.61738 | 1546 ft | 144 kts | 160° |
| 2026-05-08 12:24 | 22.16212 | 113.62103 | 1545 ft | 144 kts | 160° |
| 2026-05-08 12:24 | 22.15273 | 113.62464 | 1540 ft | 144 kts | 160° |
| 2026-05-08 12:24 | 22.14330 | 113.62826 | 1539 ft | 144 kts | 160° |
| 2026-05-08 12:25 | 22.13398 | 113.63183 | 1530 ft | 144 kts | 160° |
| 2026-05-08 12:25 | 22.12452 | 113.63546 | 1526 ft | 144 kts | 160° |
| 2026-05-08 12:25 | 22.11515 | 113.63906 | 1521 ft | 144 kts | 162° |
| 2026-05-08 12:25 | 22.10587 | 113.63760 | 1437 ft | 144 kts | 226° |
| 2026-05-08 12:26 | 22.10126 | 113.62797 | 1466 ft | 150 kts | 248° |
| 2026-05-08 12:26 | 22.09912 | 113.61702 | 1421 ft | 150 kts | 284° |
| 2026-05-08 12:26 | 22.10508 | 113.60856 | 1250 ft | 146 kts | 333° |
| 2026-05-08 12:26 | 22.11475 | 113.60461 | 787 ft | 152 kts | 336° |
| 2026-05-08 12:27 | 22.12454 | 113.60053 | 437 ft | 149 kts | 339° |
| 2026-05-08 12:27 | 22.13493 | 113.59694 | 602 ft | 175 kts | 346° |
| 2026-05-08 12:27 | 22.14708 | 113.59821 | 1268 ft | 185 kts | 27° |
| 2026-05-08 12:27 | 22.15609 | 113.60742 | 1633 ft | 171 kts | 50° |
| 2026-05-08 12:28 | 22.16035 | 113.61835 | 1519 ft | 153 kts | 94° |
| 2026-05-08 12:28 | 22.15608 | 113.62793 | 1511 ft | 147 kts | 143° |
| 2026-05-08 12:28 | 22.14699 | 113.63344 | 1550 ft | 147 kts | 156° |
| 2026-05-08 12:28 | 22.13761 | 113.63751 | 1545 ft | 146 kts | 159° |
| 2026-05-08 12:29 | 22.12812 | 113.64136 | 1535 ft | 146 kts | 159° |
| 2026-05-08 12:29 | 22.11863 | 113.64517 | 1540 ft | 146 kts | 159° |
| 2026-05-08 12:29 | 22.10913 | 113.64897 | 1528 ft | 146 kts | 159° |
| 2026-05-08 12:29 | 22.09966 | 113.65274 | 1527 ft | 146 kts | 164° |
| 2026-05-08 12:30 | 22.09019 | 113.65122 | 1408 ft | 145 kts | 224° |
| 2026-05-08 12:30 | 22.08685 | 113.64152 | 1277 ft | 146 kts | 279° |
| 2026-05-08 12:30 | 22.08983 | 113.63100 | 1261 ft | 146 kts | 291° |
| 2026-05-08 12:30 | 22.09363 | 113.62090 | 1060 ft | 145 kts | 293° |
| 2026-05-08 12:31 | 22.09884 | 113.61182 | 824 ft | 143 kts | 316° |
| 2026-05-08 12:31 | 22.10728 | 113.60640 | 596 ft | 143 kts | 343° |
| 2026-05-08 12:31 | 22.11684 | 113.60368 | 463 ft | 143 kts | 341° |
| 2026-05-08 12:31 | 22.12612 | 113.60009 | 388 ft | 143 kts | 339° |
| 2026-05-08 12:32 | 22.13549 | 113.59653 | 182 ft | 142 kts | 340° |
| 2026-05-08 12:32 | 22.14468 | 113.59317 | 39 ft | 132 kts | 341° |
| 2026-05-08 12:32 | 22.15355 | 113.58991 | 39 ft | 165 kts | 341° |
| 2026-05-08 12:32 | 22.16554 | 113.58543 | 760 ft | 191 kts | 340° |
| 2026-05-08 12:33 | 22.17847 | 113.58353 | 1596 ft | 196 kts | 359° |
| 2026-05-08 12:33 | 22.19176 | 113.58649 | 1582 ft | 193 kts | 28° |
| 2026-05-08 12:33 | 22.19996 | 113.59672 | 1476 ft | 176 kts | 72° |
| 2026-05-08 12:33 | 22.19944 | 113.60864 | 1458 ft | 152 kts | 121° |
| 2026-05-08 12:34 | 22.19202 | 113.61608 | 1502 ft | 147 kts | 148° |
| 2026-05-08 12:34 | 22.18302 | 113.62124 | 1533 ft | 148 kts | 153° |
| 2026-05-08 12:34 | 22.17379 | 113.62599 | 1535 ft | 148 kts | 154° |
| 2026-05-08 12:34 | 22.16453 | 113.63070 | 1535 ft | 145 kts | 154° |
| 2026-05-08 12:35 | 22.15549 | 113.63536 | 1524 ft | 145 kts | 154° |
| 2026-05-08 12:35 | 22.14643 | 113.64004 | 1527 ft | 145 kts | 154° |
| 2026-05-08 12:35 | 22.13737 | 113.64473 | 1521 ft | 145 kts | 154° |
| 2026-05-08 12:35 | 22.12834 | 113.64940 | 1521 ft | 145 kts | 154° |
| 2026-05-08 12:36 | 22.11933 | 113.65406 | 1520 ft | 145 kts | 154° |
| 2026-05-08 12:36 | 22.10977 | 113.65873 | 1659 ft | 159 kts | 158° |
| 2026-05-08 12:36 | 22.09936 | 113.66290 | 2478 ft | 157 kts | 160° |
| 2026-05-08 12:36 | 22.08926 | 113.66663 | 3390 ft | 153 kts | 160° |
| 2026-05-08 12:37 | 22.07923 | 113.67019 | 4149 ft | 155 kts | 160° |
| 2026-05-08 12:37 | 22.06877 | 113.67388 | 4756 ft | 169 kts | 160° |
| 2026-05-08 12:37 | 22.05673 | 113.67819 | 5038 ft | 201 kts | 160° |
| 2026-05-08 12:37 | 22.04258 | 113.68330 | 5071 ft | 234 kts | 160° |
| 2026-05-08 12:38 | 22.02657 | 113.68912 | 5040 ft | 251 kts | 160° |
| 2026-05-08 12:38 | 22.01012 | 113.69511 | 5029 ft | 253 kts | 160° |
| 2026-05-08 12:38 | 21.99352 | 113.70115 | 5030 ft | 254 kts | 160° |
| 2026-05-08 12:38 | 21.97698 | 113.70718 | 4878 ft | 254 kts | 160° |
| 2026-05-08 12:39 | 21.96055 | 113.71316 | 4629 ft | 250 kts | 160° |
| 2026-05-08 12:39 | 21.94453 | 113.71899 | 4362 ft | 247 kts | 160° |
| 2026-05-08 12:39 | 21.92878 | 113.72472 | 4145 ft | 244 kts | 160° |
| 2026-05-08 12:39 | 21.91320 | 113.73038 | 4078 ft | 234 kts | 159° |
| 2026-05-08 12:40 | 21.90021 | 113.73931 | 4049 ft | 218 kts | 124° |
| 2026-05-08 12:40 | 21.89436 | 113.75381 | 4084 ft | 214 kts | 105° |
| 2026-05-08 12:40 | 21.89050 | 113.76911 | 4087 ft | 213 kts | 104° |
| 2026-05-08 12:40 | 21.88665 | 113.78417 | 4088 ft | 213 kts | 105° |
| 2026-05-08 12:41 | 21.88251 | 113.79931 | 4094 ft | 213 kts | 106° |
| 2026-05-08 12:41 | 21.87818 | 113.81433 | 4097 ft | 213 kts | 107° |
| 2026-05-08 12:41 | 21.87376 | 113.82922 | 4101 ft | 214 kts | 107° |
| 2026-05-08 12:41 | 21.86927 | 113.84412 | 4103 ft | 214 kts | 107° |
| 2026-05-08 12:42 | 21.86467 | 113.85925 | 4108 ft | 214 kts | 107° |
| 2026-05-08 12:42 | 21.86007 | 113.87437 | 4110 ft | 214 kts | 107° |
| 2026-05-08 12:42 | 21.85548 | 113.88944 | 4116 ft | 214 kts | 107° |
| 2026-05-08 12:42 | 21.85185 | 113.90481 | 4133 ft | 213 kts | 96° |
| 2026-05-08 12:43 | 21.85137 | 113.92063 | 4137 ft | 213 kts | 89° |
| 2026-05-08 12:43 | 21.85179 | 113.93626 | 4130 ft | 213 kts | 88° |
| 2026-05-08 12:43 | 21.85234 | 113.95174 | 4140 ft | 213 kts | 87° |
| 2026-05-08 12:43 | 21.85288 | 113.96768 | 4139 ft | 213 kts | 88° |
| 2026-05-08 12:44 | 21.85336 | 113.98301 | 4144 ft | 213 kts | 88° |
| 2026-05-08 12:44 | 21.85385 | 113.99959 | 4149 ft | 213 kts | 88° |
| 2026-05-08 12:44 | 21.85429 | 114.01521 | 4154 ft | 213 kts | 88° |
| 2026-05-08 12:44 | 21.85473 | 114.03099 | 4155 ft | 213 kts | 88° |
| 2026-05-08 12:45 | 21.85517 | 114.04682 | 4162 ft | 213 kts | 88° |
| 2026-05-08 12:45 | 21.85559 | 114.06268 | 4167 ft | 213 kts | 88° |
| 2026-05-08 12:45 | 21.85601 | 114.07832 | 4169 ft | 213 kts | 88° |
| 2026-05-08 12:45 | 21.85644 | 114.09424 | 4171 ft | 213 kts | 88° |
| 2026-05-08 12:46 | 21.85950 | 114.10965 | 4168 ft | 220 kts | 56° |
| 2026-05-08 12:46 | 21.87088 | 114.12184 | 4261 ft | 249 kts | 38° |
| 2026-05-08 12:46 | 21.88546 | 114.13350 | 4512 ft | 275 kts | 36° |
| 2026-05-08 12:46 | 21.90110 | 114.14596 | 4537 ft | 280 kts | 37° |
| 2026-05-08 12:47 | 21.91651 | 114.15865 | 4554 ft | 280 kts | 38° |
| 2026-05-08 12:47 | 21.93181 | 114.17159 | 4556 ft | 280 kts | 38° |
| 2026-05-08 12:47 | 21.94703 | 114.18470 | 4558 ft | 280 kts | 39° |
| 2026-05-08 12:47 | 21.96212 | 114.19782 | 4552 ft | 280 kts | 39° |
| 2026-05-08 12:48 | 21.97707 | 114.21091 | 4550 ft | 280 kts | 39° |
| 2026-05-08 12:48 | 21.99214 | 114.22416 | 4554 ft | 280 kts | 39° |
| 2026-05-08 12:48 | 22.00682 | 114.23709 | 4551 ft | 280 kts | 39° |
| 2026-05-08 12:48 | 22.02147 | 114.24999 | 4558 ft | 280 kts | 39° |
| 2026-05-08 12:49 | 22.03626 | 114.26304 | 4547 ft | 280 kts | 39° |
| 2026-05-08 12:49 | 22.05121 | 114.27623 | 4545 ft | 280 kts | 39° |
| 2026-05-08 12:49 | 22.06636 | 114.28961 | 4540 ft | 280 kts | 39° |
| 2026-05-08 12:49 | 22.08144 | 114.30293 | 4539 ft | 280 kts | 39° |
| 2026-05-08 12:50 | 22.09641 | 114.31616 | 4536 ft | 280 kts | 39° |
| 2026-05-08 12:50 | 22.11146 | 114.32946 | 4534 ft | 280 kts | 39° |
| 2026-05-08 12:50 | 22.12645 | 114.34272 | 4529 ft | 280 kts | 39° |
| 2026-05-08 12:50 | 22.14154 | 114.35606 | 4525 ft | 280 kts | 39° |
| 2026-05-08 12:51 | 22.15649 | 114.36928 | 4521 ft | 280 kts | 39° |
| 2026-05-08 12:51 | 22.18808 | 114.39301 | 4482 ft | 281 kts | 15° |
| 2026-05-08 12:51 | 22.20738 | 114.39261 | 4510 ft | 282 kts | 344° |
| 2026-05-08 12:52 | 22.22589 | 114.38558 | 4588 ft | 282 kts | 340° |
| 2026-05-08 12:52 | 22.26255 | 114.37079 | 4711 ft | 283 kts | 340° |
| 2026-05-08 12:52 | 22.28095 | 114.36369 | 4723 ft | 282 kts | 341° |
| 2026-05-08 12:53 | 22.29934 | 114.35675 | 4727 ft | 283 kts | 341° |
| 2026-05-08 12:53 | 22.31779 | 114.34989 | 4725 ft | 282 kts | 341° |
| 2026-05-08 12:53 | 22.33634 | 114.34303 | 4722 ft | 282 kts | 341° |
| 2026-05-08 12:53 | 22.35475 | 114.33624 | 4718 ft | 282 kts | 341° |
| 2026-05-08 12:54 | 22.37328 | 114.32940 | 4715 ft | 282 kts | 341° |
| 2026-05-08 12:54 | 22.39151 | 114.32185 | 4690 ft | 283 kts | 330° |
| 2026-05-08 12:54 | 22.40485 | 114.30721 | 4626 ft | 273 kts | 297° |
| 2026-05-08 12:54 | 22.40989 | 114.28808 | 4652 ft | 257 kts | 279° |
| 2026-05-08 12:55 | 22.41207 | 114.26973 | 4668 ft | 243 kts | 277° |
| 2026-05-08 12:55 | 22.41416 | 114.25213 | 4669 ft | 229 kts | 278° |
| 2026-05-08 12:55 | 22.41652 | 114.23565 | 4668 ft | 218 kts | 280° |
| 2026-05-08 12:55 | 22.41915 | 114.21949 | 4679 ft | 218 kts | 281° |
| 2026-05-08 12:56 | 22.42141 | 114.20333 | 4582 ft | 216 kts | 271° |
| 2026-05-08 12:56 | 22.41969 | 114.18763 | 4511 ft | 209 kts | 254° |
| 2026-05-08 12:56 | 22.41523 | 114.17270 | 4449 ft | 208 kts | 250° |
| 2026-05-08 12:56 | 22.41035 | 114.15807 | 4335 ft | 207 kts | 250° |
| 2026-05-08 12:57 | 22.40559 | 114.14378 | 4243 ft | 197 kts | 250° |
| 2026-05-08 12:57 | 22.40112 | 114.13019 | 4099 ft | 189 kts | 251° |
| 2026-05-08 12:57 | 22.39690 | 114.11716 | 3980 ft | 179 kts | 251° |
| 2026-05-08 12:57 | 22.39293 | 114.10486 | 3837 ft | 179 kts | 251° |
| 2026-05-08 12:58 | 22.38867 | 114.09160 | 3461 ft | 186 kts | 251° |
| 2026-05-08 12:58 | 22.38439 | 114.07827 | 3116 ft | 190 kts | 251° |
| 2026-05-08 12:58 | 22.38003 | 114.06466 | 2806 ft | 193 kts | 250° |
| 2026-05-08 12:58 | 22.37574 | 114.05123 | 2668 ft | 185 kts | 251° |
| 2026-05-08 12:59 | 22.37163 | 114.03824 | 2431 ft | 183 kts | 250° |
| 2026-05-08 12:59 | 22.36759 | 114.02550 | 2198 ft | 177 kts | 250° |
| 2026-05-08 12:59 | 22.36366 | 114.01323 | 1967 ft | 171 kts | 250° |
| 2026-05-08 12:59 | 22.35988 | 114.00147 | 1772 ft | 162 kts | 250° |
| 2026-05-08 13:00 | 22.35632 | 113.99040 | 1533 ft | 152 kts | 250° |
| 2026-05-08 13:00 | 22.35291 | 113.97992 | 1292 ft | 144 kts | 251° |
| 2026-05-08 13:00 | 22.34961 | 113.96980 | 1137 ft | 142 kts | 251° |
| 2026-05-08 13:00 | 22.34636 | 113.95971 | 997 ft | 143 kts | 252° |
| 2026-05-08 13:01 | 22.34316 | 113.94964 | 801 ft | 142 kts | 251° |
| 2026-05-08 13:01 | 22.34000 | 113.93963 | 588 ft | 142 kts | 252° |
| 2026-05-08 13:01 | 22.33684 | 113.92966 | 369 ft | 141 kts | 251° |
| 2026-05-08 13:01 | 22.33362 | 113.91971 | 187 ft | 140 kts | 251° |
| 2026-05-08 13:02 | 22.33052 | 113.90993 | 44 ft | 134 kts | 252° |
| 2026-05-08 13:02 | 22.32808 | 113.90241 | 41 ft | 75 kts | 251° |
| 2026-05-08 13:02 | 22.32680 | 113.89843 | 40 ft | 42 kts | 251° |
| 2026-05-08 13:02 | 22.32535 | 113.89582 | 38 ft | 35 kts | 224° |
| 2026-05-08 13:03 | 22.32425 | 113.89497 | 41 ft | 13 kts | 189° |
| 2026-05-08 13:03 | 22.32334 | 113.89547 | 40 ft | 18 kts | 118° |
| 2026-05-08 13:03 | 22.32354 | 113.89691 | 40 ft | 22 kts | 71° |
| 2026-05-08 13:03 | 22.32408 | 113.89862 | 40 ft | 26 kts | 71° |
| 2026-05-08 13:04 | 22.32470 | 113.90054 | 41 ft | 29 kts | 70° |
| 2026-05-08 13:04 | 22.32539 | 113.90265 | 41 ft | 31 kts | 70° |
| 2026-05-08 13:04 | 22.32613 | 113.90491 | 41 ft | 33 kts | 70° |
| 2026-05-08 13:04 | 22.32691 | 113.90730 | 41 ft | 35 kts | 71° |
| 2026-05-08 13:05 | 22.32770 | 113.90985 | 41 ft | 36 kts | 71° |
| 2026-05-08 13:05 | 22.32855 | 113.91247 | 41 ft | 38 kts | 70° |
| 2026-05-08 13:05 | 22.32941 | 113.91517 | 41 ft | 39 kts | 71° |
| 2026-05-08 13:05 | 22.33028 | 113.91792 | 41 ft | 39 kts | 71° |
| 2026-05-08 13:06 | 22.33092 | 113.91983 | 41 ft | 13 kts | 70° |
| 2026-05-08 13:06 | 22.33101 | 113.92013 | 41 ft | 3 kts | 75° |
| 2026-05-08 13:06 | 22.33102 | 113.92035 | 41 ft | 3 kts | 104° |
| 2026-05-08 13:06 | 22.33083 | 113.92057 | 38 ft | 6 kts | 149° |
| 2026-05-08 13:07 | 22.33031 | 113.92083 | 40 ft | 12 kts | 159° |
| 2026-05-08 13:07 | 22.32935 | 113.92118 | 41 ft | 16 kts | 161° |
| 2026-05-08 13:07 | 22.32826 | 113.92158 | 41 ft | 17 kts | 161° |
| 2026-05-08 13:07 | 22.32711 | 113.92201 | 41 ft | 18 kts | 161° |
| 2026-05-08 13:08 | 22.32589 | 113.92247 | 41 ft | 19 kts | 161° |
| 2026-05-08 13:08 | 22.32466 | 113.92293 | 41 ft | 20 kts | 161° |
| 2026-05-08 13:08 | 22.32336 | 113.92342 | 41 ft | 20 kts | 161° |
| 2026-05-08 13:08 | 22.32222 | 113.92384 | 41 ft | 14 kts | 162° |
| 2026-05-08 13:09 | 22.32146 | 113.92420 | 40 ft | 7 kts | 131° |
| 2026-05-08 13:09 | 22.32137 | 113.92475 | 40 ft | 8 kts | 81° |
| 2026-05-08 13:09 | 22.32154 | 113.92537 | 41 ft | 9 kts | 71° |
| 2026-05-08 13:09 | 22.32175 | 113.92603 | 41 ft | 10 kts | 71° |
| 2026-05-08 13:10 | 22.32193 | 113.92659 | 39 ft | 10 kts | 71° |